sensor_id;sensor_type;location;lat;lon;timestamp;P1;P2;P0
66336;PMS1003;53139;45.576;5.304;2022-09-09T00:05:27;2.00;2.00;2.00
66336;PMS1003;53139;45.576;5.304;2022-09-09T00:08:42;2.00;1.40;1.00
66336;PMS1003;53139;45.576;5.304;2022-09-09T00:11:52;1.20;1.20;1.00
66336;PMS1003;53139;45.576;5.304;2022-09-09T00:15:18;1.00;1.00;1.00
66336;PMS1003;53139;45.576;5.304;2022-09-09T00:18:27;1.00;1.00;1.00
66336;PMS1003;53139;45.576;5.304;2022-09-09T00:21:47;1.00;1.00;1.00
66336;PMS1003;53139;45.576;5.304;2022-09-09T00:24:55;1.00;1.00;1.00
66336;PMS1003;53139;45.576;5.304;2022-09-09T00:28:00;1.20;1.00;0.60
66336;PMS1003;53139;45.576;5.304;2022-09-09T00:31:17;1.00;1.00;1.00
66336;PMS1003;53139;45.576;5.304;2022-09-09T00:34:24;1.00;1.00;1.00
66336;PMS1003;53139;45.576;5.304;2022-09-09T00:37:29;0.80;0.80;0.80
66336;PMS1003;53139;45.576;5.304;2022-09-09T00:40:35;1.40;0.40;0.40
66336;PMS1003;53139;45.576;5.304;2022-09-09T00:43:43;1.60;0.40;0.40
66336;PMS1003;53139;45.576;5.304;2022-09-09T00:50:32;1.00;1.00;1.00
66336;PMS1003;53139;45.576;5.304;2022-09-09T00:54:03;0.20;0.20;0.20
66336;PMS1003;53139;45.576;5.304;2022-09-09T01:00:33;1.00;1.00;0.20
66336;PMS1003;53139;45.576;5.304;2022-09-09T01:03:50;1.00;1.00;0.80
66336;PMS1003;53139;45.576;5.304;2022-09-09T01:06:59;1.60;1.60;1.00
66336;PMS1003;53139;45.576;5.304;2022-09-09T01:10:26;1.00;1.00;1.00
66336;PMS1003;53139;45.576;5.304;2022-09-09T01:13:39;1.40;1.00;1.00
66336;PMS1003;53139;45.576;5.304;2022-09-09T01:16:44;1.00;1.00;0.80
66336;PMS1003;53139;45.576;5.304;2022-09-09T01:29:45;1.00;1.00;1.00
66336;PMS1003;53139;45.576;5.304;2022-09-09T01:32:50;0.40;0.40;0.00
66336;PMS1003;53139;45.576;5.304;2022-09-09T01:36:00;1.80;1.80;1.00
66336;PMS1003;53139;45.576;5.304;2022-09-09T01:39:08;1.80;1.00;0.60
66336;PMS1003;53139;45.576;5.304;2022-09-09T01:42:12;1.80;1.00;0.40
66336;PMS1003;53139;45.576;5.304;2022-09-09T01:45:16;3.00;1.00;1.00
66336;PMS1003;53139;45.576;5.304;2022-09-09T01:48:19;2.80;1.00;1.00
66336;PMS1003;53139;45.576;5.304;2022-09-09T01:51:24;0.00;0.00;0.00
66336;PMS1003;53139;45.576;5.304;2022-09-09T01:54:28;1.00;1.00;1.00
66336;PMS1003;53139;45.576;5.304;2022-09-09T01:57:34;1.40;1.40;1.00
66336;PMS1003;53139;45.576;5.304;2022-09-09T02:00:59;1.00;0.60;0.00
66336;PMS1003;53139;45.576;5.304;2022-09-09T02:04:08;1.00;1.00;1.00
66336;PMS1003;53139;45.576;5.304;2022-09-09T02:07:40;0.40;0.40;0.00
66336;PMS1003;53139;45.576;5.304;2022-09-09T02:10:45;0.80;0.80;0.00
66336;PMS1003;53139;45.576;5.304;2022-09-09T02:13:59;2.80;2.00;1.00
66336;PMS1003;53139;45.576;5.304;2022-09-09T02:17:08;0.80;0.80;0.80
66336;PMS1003;53139;45.576;5.304;2022-09-09T02:20:13;1.00;0.80;0.60
66336;PMS1003;53139;45.576;5.304;2022-09-09T02:23:16;2.00;1.00;1.00
66336;PMS1003;53139;45.576;5.304;2022-09-09T02:26:20;1.60;0.80;0.60
66336;PMS1003;53139;45.576;5.304;2022-09-09T02:29:28;1.80;1.00;1.00
66336;PMS1003;53139;45.576;5.304;2022-09-09T02:32:35;1.20;1.00;1.00
66336;PMS1003;53139;45.576;5.304;2022-09-09T02:35:39;1.00;1.00;0.80
66336;PMS1003;53139;45.576;5.304;2022-09-09T02:38:47;1.00;1.00;1.00
66336;PMS1003;53139;45.576;5.304;2022-09-09T02:41:52;1.00;1.00;1.00
66336;PMS1003;53139;45.576;5.304;2022-09-09T02:44:55;1.00;1.00;1.00
66336;PMS1003;53139;45.576;5.304;2022-09-09T02:51:23;1.00;0.60;0.20
66336;PMS1003;53139;45.576;5.304;2022-09-09T02:54:33;0.00;0.00;0.00
66336;PMS1003;53139;45.576;5.304;2022-09-09T02:57:42;2.60;1.00;0.00
66336;PMS1003;53139;45.576;5.304;2022-09-09T03:00:49;1.40;1.00;1.00
66336;PMS1003;53139;45.576;5.304;2022-09-09T03:03:53;1.00;1.00;1.00
66336;PMS1003;53139;45.576;5.304;2022-09-09T03:06:57;1.00;0.00;0.00
66336;PMS1003;53139;45.576;5.304;2022-09-09T03:10:00;2.20;1.00;1.00
66336;PMS1003;53139;45.576;5.304;2022-09-09T03:13:03;1.20;0.80;0.00
66336;PMS1003;53139;45.576;5.304;2022-09-09T03:16:07;1.00;1.00;1.00
66336;PMS1003;53139;45.576;5.304;2022-09-09T03:19:09;1.60;0.20;0.20
66336;PMS1003;53139;45.576;5.304;2022-09-09T03:22:12;0.20;0.20;0.00
66336;PMS1003;53139;45.576;5.304;2022-09-09T03:25:15;1.00;1.00;1.00
66336;PMS1003;53139;45.576;5.304;2022-09-09T03:28:18;0.80;0.80;0.60
66336;PMS1003;53139;45.576;5.304;2022-09-09T03:31:20;2.00;0.00;0.00
66336;PMS1003;53139;45.576;5.304;2022-09-09T03:34:23;1.00;1.00;1.00
66336;PMS1003;53139;45.576;5.304;2022-09-09T03:37:25;2.00;1.00;1.00
66336;PMS1003;53139;45.576;5.304;2022-09-09T03:40:28;1.00;1.00;1.00
66336;PMS1003;53139;45.576;5.304;2022-09-09T03:43:30;2.00;1.20;1.00
66336;PMS1003;53139;45.576;5.304;2022-09-09T03:46:33;2.20;0.60;0.60
66336;PMS1003;53139;45.576;5.304;2022-09-09T03:49:35;1.80;1.60;1.00
66336;PMS1003;53139;45.576;5.304;2022-09-09T03:52:38;1.00;1.00;1.00
66336;PMS1003;53139;45.576;5.304;2022-09-09T03:55:43;1.20;1.00;0.40
66336;PMS1003;53139;45.576;5.304;2022-09-09T03:58:47;1.60;1.60;1.00
66336;PMS1003;53139;45.576;5.304;2022-09-09T04:01:50;1.00;1.00;1.00
66336;PMS1003;53139;45.576;5.304;2022-09-09T04:04:53;1.40;1.40;1.00
66336;PMS1003;53139;45.576;5.304;2022-09-09T04:07:55;1.00;1.00;1.00
66336;PMS1003;53139;45.576;5.304;2022-09-09T04:10:58;2.00;1.40;1.00
66336;PMS1003;53139;45.576;5.304;2022-09-09T04:14:03;2.00;2.00;2.00
66336;PMS1003;53139;45.576;5.304;2022-09-09T04:17:08;2.00;2.00;2.00
66336;PMS1003;53139;45.576;5.304;2022-09-09T04:20:10;1.00;1.00;1.00
66336;PMS1003;53139;45.576;5.304;2022-09-09T04:23:14;2.00;2.00;1.80
66336;PMS1003;53139;45.576;5.304;2022-09-09T04:26:17;2.00;2.00;1.00
66336;PMS1003;53139;45.576;5.304;2022-09-09T04:29:20;1.20;1.20;1.00
66336;PMS1003;53139;45.576;5.304;2022-09-09T04:32:22;2.00;2.00;2.00
66336;PMS1003;53139;45.576;5.304;2022-09-09T04:35:25;2.00;2.00;1.00
66336;PMS1003;53139;45.576;5.304;2022-09-09T04:38:29;2.40;2.00;2.00
66336;PMS1003;53139;45.576;5.304;2022-09-09T04:41:31;2.60;1.60;1.00
66336;PMS1003;53139;45.576;5.304;2022-09-09T04:44:34;1.40;1.40;1.00
66336;PMS1003;53139;45.576;5.304;2022-09-09T04:47:37;1.80;1.80;1.20
66336;PMS1003;53139;45.576;5.304;2022-09-09T04:50:40;1.80;1.80;1.00
66336;PMS1003;53139;45.576;5.304;2022-09-09T04:53:42;2.40;1.60;1.40
66336;PMS1003;53139;45.576;5.304;2022-09-09T04:56:45;3.20;2.00;2.00
66336;PMS1003;53139;45.576;5.304;2022-09-09T04:59:48;3.00;2.00;1.00
66336;PMS1003;53139;45.576;5.304;2022-09-09T05:02:50;1.80;1.80;1.40
66336;PMS1003;53139;45.576;5.304;2022-09-09T05:05:53;2.00;2.00;2.00
66336;PMS1003;53139;45.576;5.304;2022-09-09T05:08:55;5.60;3.80;3.00
66336;PMS1003;53139;45.576;5.304;2022-09-09T05:11:58;2.40;2.00;2.00
66336;PMS1003;53139;45.576;5.304;2022-09-09T05:15:01;1.00;1.00;1.00
66336;PMS1003;53139;45.576;5.304;2022-09-09T05:18:04;2.60;1.60;1.20
66336;PMS1003;53139;45.576;5.304;2022-09-09T05:21:06;1.20;1.20;1.00
66336;PMS1003;53139;45.576;5.304;2022-09-09T05:24:09;1.60;1.60;1.20
66336;PMS1003;53139;45.576;5.304;2022-09-09T05:27:12;3.20;2.20;2.00
66336;PMS1003;53139;45.576;5.304;2022-09-09T05:30:14;2.20;2.20;2.00
66336;PMS1003;53139;45.576;5.304;2022-09-09T05:33:17;2.60;2.60;2.20
66336;PMS1003;53139;45.576;5.304;2022-09-09T05:36:20;2.00;2.00;1.00
66336;PMS1003;53139;45.576;5.304;2022-09-09T05:39:23;3.00;2.60;2.00
66336;PMS1003;53139;45.576;5.304;2022-09-09T05:42:29;1.80;1.80;1.00
66336;PMS1003;53139;45.576;5.304;2022-09-09T05:45:32;2.00;1.40;1.20
66336;PMS1003;53139;45.576;5.304;2022-09-09T05:48:36;3.20;2.60;2.20
66336;PMS1003;53139;45.576;5.304;2022-09-09T05:51:43;3.00;3.00;2.40
66336;PMS1003;53139;45.576;5.304;2022-09-09T05:54:46;7.00;3.00;2.00
66336;PMS1003;53139;45.576;5.304;2022-09-09T05:57:48;3.60;2.00;2.00
66336;PMS1003;53139;45.576;5.304;2022-09-09T06:00:51;2.00;2.00;2.00
66336;PMS1003;53139;45.576;5.304;2022-09-09T06:03:54;2.20;2.00;1.00
66336;PMS1003;53139;45.576;5.304;2022-09-09T06:06:57;1.80;1.80;1.40
66336;PMS1003;53139;45.576;5.304;2022-09-09T06:09:59;2.60;2.20;2.00
66336;PMS1003;53139;45.576;5.304;2022-09-09T06:13:02;2.20;2.20;2.00
66336;PMS1003;53139;45.576;5.304;2022-09-09T06:16:14;3.60;2.60;2.00
66336;PMS1003;53139;45.576;5.304;2022-09-09T06:19:18;3.00;3.00;2.00
66336;PMS1003;53139;45.576;5.304;2022-09-09T06:22:21;3.00;3.00;2.00
66336;PMS1003;53139;45.576;5.304;2022-09-09T06:25:24;3.00;2.80;2.00
66336;PMS1003;53139;45.576;5.304;2022-09-09T06:28:27;4.60;2.20;2.00
66336;PMS1003;53139;45.576;5.304;2022-09-09T06:31:30;3.40;3.40;2.60
66336;PMS1003;53139;45.576;5.304;2022-09-09T06:34:36;2.20;2.20;2.00
66336;PMS1003;53139;45.576;5.304;2022-09-09T06:37:38;3.00;3.00;2.40
66336;PMS1003;53139;45.576;5.304;2022-09-09T06:40:41;3.20;2.00;2.00
66336;PMS1003;53139;45.576;5.304;2022-09-09T06:43:45;4.20;3.00;2.80
66336;PMS1003;53139;45.576;5.304;2022-09-09T06:46:48;4.00;2.20;2.00
66336;PMS1003;53139;45.576;5.304;2022-09-09T06:49:50;3.00;3.00;2.80
66336;PMS1003;53139;45.576;5.304;2022-09-09T06:52:53;4.40;3.00;2.60
66336;PMS1003;53139;45.576;5.304;2022-09-09T06:55:55;5.40;3.00;2.00
66336;PMS1003;53139;45.576;5.304;2022-09-09T06:58:59;2.60;2.60;2.00
66336;PMS1003;53139;45.576;5.304;2022-09-09T07:02:07;4.00;2.60;2.00
66336;PMS1003;53139;45.576;5.304;2022-09-09T07:05:09;6.20;2.20;2.00
66336;PMS1003;53139;45.576;5.304;2022-09-09T07:08:12;3.00;3.00;3.00
66336;PMS1003;53139;45.576;5.304;2022-09-09T07:11:15;3.40;2.20;2.00
66336;PMS1003;53139;45.576;5.304;2022-09-09T07:14:18;5.00;4.00;3.20
66336;PMS1003;53139;45.576;5.304;2022-09-09T07:17:21;3.60;3.40;2.40
66336;PMS1003;53139;45.576;5.304;2022-09-09T07:20:23;5.00;4.60;3.60
66336;PMS1003;53139;45.576;5.304;2022-09-09T07:23:26;1.40;1.00;0.40
66336;PMS1003;53139;45.576;5.304;2022-09-09T07:26:29;2.20;2.00;1.20
66336;PMS1003;53139;45.576;5.304;2022-09-09T07:29:32;2.00;2.00;1.60
66336;PMS1003;53139;45.576;5.304;2022-09-09T07:32:35;1.20;1.20;1.00
66336;PMS1003;53139;45.576;5.304;2022-09-09T07:35:37;2.20;1.40;1.00
66336;PMS1003;53139;45.576;5.304;2022-09-09T07:38:40;2.00;2.00;2.00
66336;PMS1003;53139;45.576;5.304;2022-09-09T07:41:48;2.20;2.20;2.00
66336;PMS1003;53139;45.576;5.304;2022-09-09T07:44:51;2.60;1.00;1.00
66336;PMS1003;53139;45.576;5.304;2022-09-09T07:47:56;3.60;2.20;2.00
66336;PMS1003;53139;45.576;5.304;2022-09-09T07:51:03;1.80;1.20;1.00
66336;PMS1003;53139;45.576;5.304;2022-09-09T07:54:11;1.60;1.00;1.00
66336;PMS1003;53139;45.576;5.304;2022-09-09T07:57:15;1.40;1.40;1.00
66336;PMS1003;53139;45.576;5.304;2022-09-09T08:00:18;2.00;1.00;1.00
66336;PMS1003;53139;45.576;5.304;2022-09-09T08:03:24;1.00;1.00;1.00
66336;PMS1003;53139;45.576;5.304;2022-09-09T08:06:32;2.20;2.00;1.00
66336;PMS1003;53139;45.576;5.304;2022-09-09T08:09:37;1.40;1.00;0.00
66336;PMS1003;53139;45.576;5.304;2022-09-09T08:12:39;2.40;1.60;0.80
66336;PMS1003;53139;45.576;5.304;2022-09-09T08:15:42;1.60;1.60;1.40
66336;PMS1003;53139;45.576;5.304;2022-09-09T08:18:46;1.40;1.00;1.00
66336;PMS1003;53139;45.576;5.304;2022-09-09T08:21:49;0.60;0.60;0.60
66336;PMS1003;53139;45.576;5.304;2022-09-09T08:24:52;1.00;1.00;1.00
66336;PMS1003;53139;45.576;5.304;2022-09-09T08:27:54;1.00;0.60;0.40
66336;PMS1003;53139;45.576;5.304;2022-09-09T08:34:14;1.60;0.80;0.20
66336;PMS1003;53139;45.576;5.304;2022-09-09T08:37:17;1.00;1.00;1.00
66336;PMS1003;53139;45.576;5.304;2022-09-09T08:40:22;1.00;1.00;0.40
66336;PMS1003;53139;45.576;5.304;2022-09-09T08:43:31;2.00;1.00;1.00
66336;PMS1003;53139;45.576;5.304;2022-09-09T08:56:24;1.00;1.00;1.00
66336;PMS1003;53139;45.576;5.304;2022-09-09T08:59:28;1.00;1.00;0.60
66336;PMS1003;53139;45.576;5.304;2022-09-09T09:05:46;0.20;0.20;0.20
66336;PMS1003;53139;45.576;5.304;2022-09-09T09:12:20;1.20;0.00;0.00
66336;PMS1003;53139;45.576;5.304;2022-09-09T09:15:26;1.00;0.60;0.60
66336;PMS1003;53139;45.576;5.304;2022-09-09T09:18:32;1.00;1.00;1.00
66336;PMS1003;53139;45.576;5.304;2022-09-09T09:21:42;0.40;0.40;0.40
66336;PMS1003;53139;45.576;5.304;2022-09-09T09:31:19;0.40;0.40;0.00
66336;PMS1003;53139;45.576;5.304;2022-09-09T09:34:22;0.00;0.00;0.00
66336;PMS1003;53139;45.576;5.304;2022-09-09T09:37:28;0.00;0.00;0.00
66336;PMS1003;53139;45.576;5.304;2022-09-09T09:40:33;2.00;1.00;1.00
66336;PMS1003;53139;45.576;5.304;2022-09-09T09:43:36;0.00;0.00;0.00
66336;PMS1003;53139;45.576;5.304;2022-09-09T09:46:41;0.00;0.00;0.00
66336;PMS1003;53139;45.576;5.304;2022-09-09T09:52:58;0.00;0.00;0.00
66336;PMS1003;53139;45.576;5.304;2022-09-09T09:56:06;0.00;0.00;0.00
66336;PMS1003;53139;45.576;5.304;2022-09-09T09:59:19;0.80;0.80;0.40
66336;PMS1003;53139;45.576;5.304;2022-09-09T10:02:31;2.00;0.00;0.00
66336;PMS1003;53139;45.576;5.304;2022-09-09T10:05:46;0.00;0.00;0.00
66336;PMS1003;53139;45.576;5.304;2022-09-09T10:08:49;1.00;0.00;0.00
66336;PMS1003;53139;45.576;5.304;2022-09-09T10:18:45;0.40;0.00;0.00
66336;PMS1003;53139;45.576;5.304;2022-09-09T10:25:50;0.00;0.00;0.00
66336;PMS1003;53139;45.576;5.304;2022-09-09T10:42:37;0.00;0.00;0.00
66336;PMS1003;53139;45.576;5.304;2022-09-09T10:49:12;0.40;0.00;0.00
66336;PMS1003;53139;45.576;5.304;2022-09-09T10:55:48;0.00;0.00;0.00
66336;PMS1003;53139;45.576;5.304;2022-09-09T10:59:14;1.00;0.00;0.00
66336;PMS1003;53139;45.576;5.304;2022-09-09T11:02:30;0.60;0.00;0.00
66336;PMS1003;53139;45.576;5.304;2022-09-09T11:05:43;0.20;0.00;0.00
66336;PMS1003;53139;45.576;5.304;2022-09-09T11:08:58;0.00;0.00;0.00
66336;PMS1003;53139;45.576;5.304;2022-09-09T11:12:04;1.00;0.00;0.00
66336;PMS1003;53139;45.576;5.304;2022-09-09T11:15:15;0.00;0.00;0.00
66336;PMS1003;53139;45.576;5.304;2022-09-09T11:18:25;0.00;0.00;0.00
66336;PMS1003;53139;45.576;5.304;2022-09-09T11:21:32;0.80;0.00;0.00
66336;PMS1003;53139;45.576;5.304;2022-09-09T11:24:47;0.00;0.00;0.00
66336;PMS1003;53139;45.576;5.304;2022-09-09T11:38:31;0.00;0.00;0.00
66336;PMS1003;53139;45.576;5.304;2022-09-09T11:41:40;0.20;0.20;0.00
66336;PMS1003;53139;45.576;5.304;2022-09-09T11:44:43;0.00;0.00;0.00
66336;PMS1003;53139;45.576;5.304;2022-09-09T11:47:53;0.00;0.00;0.00
66336;PMS1003;53139;45.576;5.304;2022-09-09T11:51:07;1.00;0.00;0.00
66336;PMS1003;53139;45.576;5.304;2022-09-09T11:54:26;0.00;0.00;0.00
66336;PMS1003;53139;45.576;5.304;2022-09-09T11:57:32;0.00;0.00;0.00
66336;PMS1003;53139;45.576;5.304;2022-09-09T12:00:41;0.00;0.00;0.00
66336;PMS1003;53139;45.576;5.304;2022-09-09T12:03:50;0.00;0.00;0.00
66336;PMS1003;53139;45.576;5.304;2022-09-09T12:06:58;0.00;0.00;0.00
66336;PMS1003;53139;45.576;5.304;2022-09-09T12:13:23;0.00;0.00;0.00
66336;PMS1003;53139;45.576;5.304;2022-09-09T12:16:31;0.60;0.00;0.00
66336;PMS1003;53139;45.576;5.304;2022-09-09T12:19:35;0.00;0.00;0.00
66336;PMS1003;53139;45.576;5.304;2022-09-09T12:29:21;0.00;0.00;0.00
66336;PMS1003;53139;45.576;5.304;2022-09-09T12:32:25;0.00;0.00;0.00
66336;PMS1003;53139;45.576;5.304;2022-09-09T12:35:30;0.00;0.00;0.00
66336;PMS1003;53139;45.576;5.304;2022-09-09T12:38:37;0.60;0.00;0.00
66336;PMS1003;53139;45.576;5.304;2022-09-09T12:41:50;1.20;0.00;0.00
66336;PMS1003;53139;45.576;5.304;2022-09-09T12:44:59;0.00;0.00;0.00
66336;PMS1003;53139;45.576;5.304;2022-09-09T12:48:03;0.00;0.00;0.00
66336;PMS1003;53139;45.576;5.304;2022-09-09T12:51:21;0.00;0.00;0.00
66336;PMS1003;53139;45.576;5.304;2022-09-09T12:54:30;0.20;0.00;0.00
66336;PMS1003;53139;45.576;5.304;2022-09-09T12:57:35;0.00;0.00;0.00
66336;PMS1003;53139;45.576;5.304;2022-09-09T13:00:48;0.00;0.00;0.00
66336;PMS1003;53139;45.576;5.304;2022-09-09T13:03:52;0.00;0.00;0.00
66336;PMS1003;53139;45.576;5.304;2022-09-09T13:07:05;0.00;0.00;0.00
66336;PMS1003;53139;45.576;5.304;2022-09-09T13:10:12;0.00;0.00;0.00
66336;PMS1003;53139;45.576;5.304;2022-09-09T13:13:17;0.00;0.00;0.00
66336;PMS1003;53139;45.576;5.304;2022-09-09T13:16:27;0.00;0.00;0.00
66336;PMS1003;53139;45.576;5.304;2022-09-09T13:19:35;0.00;0.00;0.00
66336;PMS1003;53139;45.576;5.304;2022-09-09T13:22:40;0.00;0.00;0.00
66336;PMS1003;53139;45.576;5.304;2022-09-09T13:25:51;0.00;0.00;0.00
66336;PMS1003;53139;45.576;5.304;2022-09-09T13:29:07;0.60;0.00;0.00
66336;PMS1003;53139;45.576;5.304;2022-09-09T13:32:20;2.00;0.20;0.20
66336;PMS1003;53139;45.576;5.304;2022-09-09T13:35:23;0.00;0.00;0.00
66336;PMS1003;53139;45.576;5.304;2022-09-09T13:38:27;0.00;0.00;0.00
66336;PMS1003;53139;45.576;5.304;2022-09-09T13:41:42;0.00;0.00;0.00
66336;PMS1003;53139;45.576;5.304;2022-09-09T13:44:46;0.00;0.00;0.00
66336;PMS1003;53139;45.576;5.304;2022-09-09T13:51:26;0.00;0.00;0.00
66336;PMS1003;53139;45.576;5.304;2022-09-09T13:54:47;0.00;0.00;0.00
66336;PMS1003;53139;45.576;5.304;2022-09-09T13:57:55;0.00;0.00;0.00
66336;PMS1003;53139;45.576;5.304;2022-09-09T14:01:02;0.00;0.00;0.00
66336;PMS1003;53139;45.576;5.304;2022-09-09T14:04:05;0.00;0.00;0.00
66336;PMS1003;53139;45.576;5.304;2022-09-09T14:07:15;0.00;0.00;0.00
66336;PMS1003;53139;45.576;5.304;2022-09-09T14:10:19;0.80;0.00;0.00
66336;PMS1003;53139;45.576;5.304;2022-09-09T14:13:23;0.00;0.00;0.00
66336;PMS1003;53139;45.576;5.304;2022-09-09T14:16:25;0.00;0.00;0.00
66336;PMS1003;53139;45.576;5.304;2022-09-09T14:19:29;0.00;0.00;0.00
66336;PMS1003;53139;45.576;5.304;2022-09-09T14:22:33;0.00;0.00;0.00
66336;PMS1003;53139;45.576;5.304;2022-09-09T14:25:35;0.00;0.00;0.00
66336;PMS1003;53139;45.576;5.304;2022-09-09T14:28:38;0.00;0.00;0.00
66336;PMS1003;53139;45.576;5.304;2022-09-09T14:31:42;0.00;0.00;0.00
66336;PMS1003;53139;45.576;5.304;2022-09-09T14:34:45;0.00;0.00;0.00
66336;PMS1003;53139;45.576;5.304;2022-09-09T14:37:47;0.00;0.00;0.00
66336;PMS1003;53139;45.576;5.304;2022-09-09T14:40:50;0.00;0.00;0.00
66336;PMS1003;53139;45.576;5.304;2022-09-09T14:43:53;0.00;0.00;0.00
66336;PMS1003;53139;45.576;5.304;2022-09-09T14:46:55;0.00;0.00;0.00
66336;PMS1003;53139;45.576;5.304;2022-09-09T14:49:58;0.00;0.00;0.00
66336;PMS1003;53139;45.576;5.304;2022-09-09T14:53:03;0.00;0.00;0.00
66336;PMS1003;53139;45.576;5.304;2022-09-09T14:59:12;1.00;0.00;0.00
66336;PMS1003;53139;45.576;5.304;2022-09-09T15:02:15;0.00;0.00;0.00
66336;PMS1003;53139;45.576;5.304;2022-09-09T15:05:17;0.00;0.00;0.00
66336;PMS1003;53139;45.576;5.304;2022-09-09T15:08:20;1.20;0.00;0.00
66336;PMS1003;53139;45.576;5.304;2022-09-09T15:11:23;0.00;0.00;0.00
66336;PMS1003;53139;45.576;5.304;2022-09-09T15:14:28;1.00;1.00;1.00
66336;PMS1003;53139;45.576;5.304;2022-09-09T15:17:30;0.00;0.00;0.00
66336;PMS1003;53139;45.576;5.304;2022-09-09T15:20:33;0.00;0.00;0.00
66336;PMS1003;53139;45.576;5.304;2022-09-09T15:23:37;0.00;0.00;0.00
66336;PMS1003;53139;45.576;5.304;2022-09-09T15:26:42;0.00;0.00;0.00
66336;PMS1003;53139;45.576;5.304;2022-09-09T15:29:44;0.00;0.00;0.00
66336;PMS1003;53139;45.576;5.304;2022-09-09T15:32:47;0.00;0.00;0.00
66336;PMS1003;53139;45.576;5.304;2022-09-09T15:35:49;0.00;0.00;0.00
66336;PMS1003;53139;45.576;5.304;2022-09-09T15:38:53;0.60;0.00;0.00
66336;PMS1003;53139;45.576;5.304;2022-09-09T15:41:55;0.00;0.00;0.00
66336;PMS1003;53139;45.576;5.304;2022-09-09T15:44:58;0.40;0.40;0.00
66336;PMS1003;53139;45.576;5.304;2022-09-09T15:48:04;0.00;0.00;0.00
66336;PMS1003;53139;45.576;5.304;2022-09-09T15:51:07;0.00;0.00;0.00
66336;PMS1003;53139;45.576;5.304;2022-09-09T15:54:13;0.00;0.00;0.00
66336;PMS1003;53139;45.576;5.304;2022-09-09T15:57:18;0.00;0.00;0.00
66336;PMS1003;53139;45.576;5.304;2022-09-09T16:00:21;0.00;0.00;0.00
66336;PMS1003;53139;45.576;5.304;2022-09-09T16:03:24;0.00;0.00;0.00
66336;PMS1003;53139;45.576;5.304;2022-09-09T16:06:28;0.00;0.00;0.00
66336;PMS1003;53139;45.576;5.304;2022-09-09T16:09:32;0.00;0.00;0.00
66336;PMS1003;53139;45.576;5.304;2022-09-09T16:12:35;0.00;0.00;0.00
66336;PMS1003;53139;45.576;5.304;2022-09-09T16:15:38;1.00;0.00;0.00
66336;PMS1003;53139;45.576;5.304;2022-09-09T16:18:42;0.00;0.00;0.00
66336;PMS1003;53139;45.576;5.304;2022-09-09T16:21:49;0.00;0.00;0.00
66336;PMS1003;53139;45.576;5.304;2022-09-09T16:24:52;0.00;0.00;0.00
66336;PMS1003;53139;45.576;5.304;2022-09-09T16:27:54;0.00;0.00;0.00
66336;PMS1003;53139;45.576;5.304;2022-09-09T16:30:57;0.00;0.00;0.00
66336;PMS1003;53139;45.576;5.304;2022-09-09T16:34:03;0.00;0.00;0.00
66336;PMS1003;53139;45.576;5.304;2022-09-09T16:37:06;0.20;0.20;0.00
66336;PMS1003;53139;45.576;5.304;2022-09-09T16:40:08;0.00;0.00;0.00
66336;PMS1003;53139;45.576;5.304;2022-09-09T16:43:11;0.00;0.00;0.00
66336;PMS1003;53139;45.576;5.304;2022-09-09T16:46:15;1.00;0.00;0.00
66336;PMS1003;53139;45.576;5.304;2022-09-09T16:49:20;0.00;0.00;0.00
66336;PMS1003;53139;45.576;5.304;2022-09-09T16:52:22;0.80;0.80;0.00
66336;PMS1003;53139;45.576;5.304;2022-09-09T16:55:25;1.00;0.00;0.00
66336;PMS1003;53139;45.576;5.304;2022-09-09T16:58:28;1.00;1.00;0.20
66336;PMS1003;53139;45.576;5.304;2022-09-09T17:01:32;2.00;1.60;1.00
66336;PMS1003;53139;45.576;5.304;2022-09-09T17:04:39;1.20;0.00;0.00
66336;PMS1003;53139;45.576;5.304;2022-09-09T17:07:42;0.20;0.00;0.00
66336;PMS1003;53139;45.576;5.304;2022-09-09T17:10:46;0.60;0.60;0.00
66336;PMS1003;53139;45.576;5.304;2022-09-09T17:13:49;0.00;0.00;0.00
66336;PMS1003;53139;45.576;5.304;2022-09-09T17:16:52;1.80;1.00;1.00
66336;PMS1003;53139;45.576;5.304;2022-09-09T17:19:55;0.00;0.00;0.00
66336;PMS1003;53139;45.576;5.304;2022-09-09T17:22:58;0.00;0.00;0.00
66336;PMS1003;53139;45.576;5.304;2022-09-09T17:26:00;0.60;0.60;0.20
66336;PMS1003;53139;45.576;5.304;2022-09-09T17:29:03;0.00;0.00;0.00
66336;PMS1003;53139;45.576;5.304;2022-09-09T17:32:06;1.00;1.00;0.00
66336;PMS1003;53139;45.576;5.304;2022-09-09T17:35:09;2.00;1.40;1.20
66336;PMS1003;53139;45.576;5.304;2022-09-09T17:38:11;1.20;1.00;0.20
66336;PMS1003;53139;45.576;5.304;2022-09-09T17:44:24;0.00;0.00;0.00
66336;PMS1003;53139;45.576;5.304;2022-09-09T17:47:26;0.00;0.00;0.00
66336;PMS1003;53139;45.576;5.304;2022-09-09T17:50:30;0.00;0.00;0.00
66336;PMS1003;53139;45.576;5.304;2022-09-09T17:53:41;1.00;1.00;0.00
66336;PMS1003;53139;45.576;5.304;2022-09-09T17:56:46;0.00;0.00;0.00
66336;PMS1003;53139;45.576;5.304;2022-09-09T17:59:49;0.00;0.00;0.00
66336;PMS1003;53139;45.576;5.304;2022-09-09T18:02:52;0.00;0.00;0.00
66336;PMS1003;53139;45.576;5.304;2022-09-09T18:05:59;0.00;0.00;0.00
66336;PMS1003;53139;45.576;5.304;2022-09-09T18:09:08;0.00;0.00;0.00
66336;PMS1003;53139;45.576;5.304;2022-09-09T18:12:14;0.00;0.00;0.00
66336;PMS1003;53139;45.576;5.304;2022-09-09T18:15:17;0.20;0.00;0.00
66336;PMS1003;53139;45.576;5.304;2022-09-09T18:18:19;1.00;0.00;0.00
66336;PMS1003;53139;45.576;5.304;2022-09-09T18:21:25;1.00;1.00;0.60
66336;PMS1003;53139;45.576;5.304;2022-09-09T18:28:15;1.00;1.00;0.00
66336;PMS1003;53139;45.576;5.304;2022-09-09T18:31:18;0.00;0.00;0.00
66336;PMS1003;53139;45.576;5.304;2022-09-09T18:34:24;1.60;0.80;0.20
66336;PMS1003;53139;45.576;5.304;2022-09-09T18:37:29;2.00;0.20;0.00
66336;PMS1003;53139;45.576;5.304;2022-09-09T18:40:35;0.80;0.00;0.00
66336;PMS1003;53139;45.576;5.304;2022-09-09T18:43:38;0.40;0.00;0.00
66336;PMS1003;53139;45.576;5.304;2022-09-09T18:46:41;0.00;0.00;0.00
66336;PMS1003;53139;45.576;5.304;2022-09-09T18:49:44;0.40;0.40;0.40
66336;PMS1003;53139;45.576;5.304;2022-09-09T18:52:48;1.20;0.00;0.00
66336;PMS1003;53139;45.576;5.304;2022-09-09T18:55:57;0.00;0.00;0.00
66336;PMS1003;53139;45.576;5.304;2022-09-09T18:59:01;0.00;0.00;0.00
66336;PMS1003;53139;45.576;5.304;2022-09-09T19:02:20;0.00;0.00;0.00
66336;PMS1003;53139;45.576;5.304;2022-09-09T19:05:24;0.00;0.00;0.00
66336;PMS1003;53139;45.576;5.304;2022-09-09T19:08:32;1.20;0.00;0.00
66336;PMS1003;53139;45.576;5.304;2022-09-09T19:11:38;0.00;0.00;0.00
66336;PMS1003;53139;45.576;5.304;2022-09-09T19:14:40;0.20;0.00;0.00
66336;PMS1003;53139;45.576;5.304;2022-09-09T19:17:44;1.00;1.00;0.00
66336;PMS1003;53139;45.576;5.304;2022-09-09T19:20:46;0.20;0.20;0.00
66336;PMS1003;53139;45.576;5.304;2022-09-09T19:23:56;0.00;0.00;0.00
66336;PMS1003;53139;45.576;5.304;2022-09-09T19:27:03;0.00;0.00;0.00
66336;PMS1003;53139;45.576;5.304;2022-09-09T19:30:08;1.00;1.00;0.20
66336;PMS1003;53139;45.576;5.304;2022-09-09T19:33:16;0.40;0.00;0.00
66336;PMS1003;53139;45.576;5.304;2022-09-09T19:36:30;0.60;0.60;0.60
66336;PMS1003;53139;45.576;5.304;2022-09-09T19:39:53;0.00;0.00;0.00
66336;PMS1003;53139;45.576;5.304;2022-09-09T19:42:55;0.00;0.00;0.00
66336;PMS1003;53139;45.576;5.304;2022-09-09T19:45:58;0.00;0.00;0.00
66336;PMS1003;53139;45.576;5.304;2022-09-09T19:49:04;0.40;0.40;0.40
66336;PMS1003;53139;45.576;5.304;2022-09-09T19:52:10;0.00;0.00;0.00
66336;PMS1003;53139;45.576;5.304;2022-09-09T19:55:12;0.20;0.20;0.00
66336;PMS1003;53139;45.576;5.304;2022-09-09T19:58:15;0.80;0.80;0.00
66336;PMS1003;53139;45.576;5.304;2022-09-09T20:01:22;1.00;0.00;0.00
66336;PMS1003;53139;45.576;5.304;2022-09-09T20:04:27;0.00;0.00;0.00
66336;PMS1003;53139;45.576;5.304;2022-09-09T20:07:29;0.00;0.00;0.00